Time;durP1;ratioP1;P1;durP2;ratioP2;P2;SDS_P1;SDS_P2;PMS_P1;PMS_P2;Temp;Humidity;BMP_temperature;BMP_pressure;BME280_temperature;BME280_humidity;BME280_pressure;Samples;Min_cycle;Max_cycle;Signal;HPM_P1;HPM_P2
2022/04/18 00:02:08;;;;;;;1.03;1.03;;;;;;;7.10;91.60;99217.88;5056260;28;20228;-66
2022/04/18 00:04:35;;;;;;;1.17;1.17;;;;;;;7.12;92.23;99221.97;5055193;28;20196;-66
2022/04/18 00:07:02;;;;;;;1.00;1.00;;;;;;;7.14;92.33;99222.59;5055022;28;20199;-65
2022/04/18 00:09:30;;;;;;;1.10;1.10;;;;;;;7.14;92.79;99213.88;5056188;28;20193;-66
2022/04/18 00:11:58;;;;;;;1.30;1.30;;;;;;;7.15;93.80;99215.50;5055339;28;20266;-66
2022/04/18 00:14:25;;;;;;;0.90;0.90;;;;;;;7.17;94.09;99213.50;5054871;28;20197;-65
2022/04/18 00:16:52;;;;;;;0.93;0.93;;;;;;;7.21;94.75;99204.22;5055124;28;20192;-67
2022/04/18 00:19:18;;;;;;;0.90;0.90;;;;;;;7.22;93.70;99211.94;5055042;28;20260;-66
2022/04/18 00:21:45;;;;;;;1.80;1.20;;;;;;;7.29;94.63;99206.75;5055027;28;20200;-66
2022/04/18 00:24:14;;;;;;;1.10;1.10;;;;;;;7.26;94.57;99207.16;5055019;28;20201;-66
2022/04/18 00:26:42;;;;;;;1.40;1.20;;;;;;;7.33;95.33;99202.75;5055064;28;20238;-66
2022/04/18 00:29:10;;;;;;;1.10;1.10;;;;;;;7.33;95.54;99195.66;5054686;28;20618;-66
2022/04/18 00:31:37;;;;;;;1.20;1.20;;;;;;;7.31;96.02;99194.22;5054657;28;20677;-66
2022/04/18 00:34:04;;;;;;;1.40;1.37;;;;;;;7.33;96.51;99202.75;5055103;28;20192;-66
2022/04/18 00:36:31;;;;;;;1.20;1.20;;;;;;;7.39;97.15;99196.75;5054555;28;20565;-68
2022/04/18 00:38:58;;;;;;;1.00;1.00;;;;;;;7.41;96.23;99194.75;5055653;28;20623;-68
2022/04/18 00:41:25;;;;;;;2.20;0.93;;;;;;;7.46;95.93;99192.34;5054546;28;20196;-68
2022/04/18 00:43:52;;;;;;;1.37;1.27;;;;;;;7.37;94.78;99189.00;5054335;28;20220;-66
2022/04/18 00:46:21;;;;;;;1.20;1.20;;;;;;;7.32;93.99;99180.00;5054559;28;20192;-66
2022/04/18 00:48:49;;;;;;;1.30;1.30;;;;;;;7.31;93.72;99181.00;5054549;28;20668;-66
2022/04/18 00:51:18;;;;;;;1.20;1.20;;;;;;;7.18;93.90;99183.47;5054264;28;20254;-66
2022/04/18 00:53:45;;;;;;;1.37;1.30;;;;;;;6.99;94.79;99173.44;5054571;28;20196;-67
2022/04/18 00:56:14;;;;;;;2.20;2.10;;;;;;;6.86;95.32;99183.78;5054510;28;20192;-66
2022/04/18 00:58:42;;;;;;;1.53;1.53;;;;;;;6.88;96.46;99177.34;5054479;28;20222;-68
2022/04/18 01:01:09;;;;;;;1.53;1.43;;;;;;;6.87;97.30;99173.06;5054388;28;20193;-66
2022/04/18 01:03:37;;;;;;;1.83;1.73;;;;;;;6.88;97.33;99169.41;5054098;28;20220;-65
2022/04/18 01:06:05;;;;;;;1.33;1.33;;;;;;;6.84;97.20;99169.94;5055147;28;20260;-65
2022/04/18 01:08:34;;;;;;;1.40;1.40;;;;;;;6.93;97.86;99174.97;5055103;28;20195;-65
2022/04/18 01:11:02;;;;;;;1.20;1.20;;;;;;;6.91;97.54;99173.50;5054248;28;20198;-66
2022/04/18 01:13:29;;;;;;;1.30;1.30;;;;;;;6.85;97.18;99166.28;5053874;28;20200;-64
2022/04/18 01:15:57;;;;;;;1.30;1.27;;;;;;;7.00;97.72;99167.13;5053712;28;20274;-65
2022/04/18 01:18:24;;;;;;;1.73;1.70;;;;;;;7.13;97.65;99165.50;5053797;28;20700;-65
2022/04/18 01:20:52;;;;;;;1.20;1.20;;;;;;;7.26;96.59;99152.47;5054625;28;20228;-65
2022/04/18 01:23:19;;;;;;;1.33;1.33;;;;;;;7.37;96.63;99157.31;5053918;28;20272;-66
2022/04/18 01:31:13;;;;;;;1.00;1.00;;;;;;;7.41;95.75;99152.47;5053719;28;20574;-66
2022/04/18 01:33:40;;;;;;;1.10;1.10;;;;;;;7.43;95.30;99155.75;5054141;28;20200;-66
2022/04/18 01:36:08;;;;;;;1.63;1.57;;;;;;;7.43;95.25;99153.91;5053443;28;20196;-67
2022/04/18 01:38:35;;;;;;;1.30;1.30;;;;;;;7.44;95.64;99147.66;5054309;28;20196;-67
2022/04/18 01:41:02;;;;;;;1.30;1.30;;;;;;;7.54;95.54;99147.34;5053669;28;20243;-67
2022/04/18 01:43:28;;;;;;;1.20;1.20;;;;;;;7.40;94.02;99129.69;5053445;28;20762;-67
2022/04/18 01:45:55;;;;;;;1.20;1.20;;;;;;;7.45;94.54;99138.72;5053607;28;20250;-67
2022/04/18 01:48:22;;;;;;;0.97;0.97;;;;;;;7.33;93.39;99139.34;5054097;28;20188;-66
2022/04/18 01:50:48;;;;;;;1.00;1.00;;;;;;;7.21;94.37;99140.81;5053476;28;20238;-67
2022/04/18 01:53:16;;;;;;;0.90;0.90;;;;;;;7.12;94.07;99142.75;5053170;28;20208;-66
2022/04/18 01:55:43;;;;;;;2.30;1.20;;;;;;;7.09;94.72;99142.28;5053690;28;20189;-66
2022/04/18 01:58:09;;;;;;;0.83;0.83;;;;;;;7.12;95.24;99139.28;5053390;28;20192;-66
2022/04/18 02:00:36;;;;;;;1.13;1.13;;;;;;;7.07;94.30;99131.09;5053575;28;20250;-66
2022/04/18 02:03:03;;;;;;;1.03;1.03;;;;;;;7.03;94.02;99133.28;5053172;28;20353;-66
2022/04/18 02:05:30;;;;;;;1.10;1.10;;;;;;;7.01;94.77;99130.00;5053241;28;20542;-66
2022/04/18 02:07:56;;;;;;;1.10;1.10;;;;;;;7.02;95.07;99128.19;5052889;28;20628;-67
2022/04/18 02:10:25;;;;;;;1.47;1.47;;;;;;;6.91;93.85;99123.34;5053934;28;20273;-66
2022/04/18 02:12:51;;;;;;;1.13;1.13;;;;;;;6.93;94.60;99119.53;5053286;28;20195;-66
2022/04/18 02:15:19;;;;;;;1.00;1.00;;;;;;;6.92;93.64;99125.81;5052754;28;20224;-66
2022/04/18 02:17:45;;;;;;;1.13;1.13;;;;;;;6.95;94.11;99120.19;5053560;28;20255;-66
2022/04/18 02:20:12;;;;;;;1.10;1.10;;;;;;;6.88;94.13;99113.16;5052609;28;20200;-66
2022/04/18 02:22:39;;;;;;;0.90;0.90;;;;;;;6.88;94.61;99118.44;5052876;28;20270;-67
2022/04/18 02:25:07;;;;;;;1.20;1.20;;;;;;;6.81;94.05;99120.19;5052513;28;20198;-66
2022/04/18 02:27:36;;;;;;;1.10;1.10;;;;;;;6.76;93.87;99117.22;5053637;28;20194;-66
2022/04/18 02:30:03;;;;;;;1.30;1.30;;;;;;;6.62;94.34;99118.06;5052470;28;20196;-65
2022/04/18 02:35:14;;;;;;;1.20;1.20;;;;;;;6.72;96.12;99124.72;5052526;28;20209;-67
2022/04/18 02:37:41;;;;;;;1.20;1.20;;;;;;;6.81;96.28;99123.63;5052608;28;20191;-67
2022/04/18 02:40:09;;;;;;;1.50;1.50;;;;;;;6.74;96.10;99116.59;5052514;28;20250;-67
2022/04/18 02:42:37;;;;;;;1.70;1.60;;;;;;;6.60;97.24;99120.03;5052668;28;20666;-67
2022/04/18 02:45:04;;;;;;;1.67;1.67;;;;;;;6.65;98.45;99122.97;5052735;28;20198;-67
2022/04/18 02:47:31;;;;;;;2.23;2.20;;;;;;;6.76;99.29;99119.88;5052608;28;20241;-66
2022/04/18 02:49:58;;;;;;;1.97;1.97;;;;;;;6.82;99.09;99119.97;5052662;28;20193;-66
2022/04/18 02:52:24;;;;;;;2.30;2.20;;;;;;;6.73;99.03;99114.97;5052033;28;20192;-66
2022/04/18 02:54:51;;;;;;;1.90;1.80;;;;;;;6.72;99.64;99114.16;5051918;28;20195;-66
2022/04/18 02:57:18;;;;;;;2.43;2.33;;;;;;;6.75;99.75;99112.97;5052270;28;20349;-66
2022/04/18 02:59:46;;;;;;;2.13;2.03;;;;;;;6.72;99.88;99108.88;5052137;28;20271;-66
2022/04/18 03:02:13;;;;;;;2.53;2.20;;;;;;;6.70;99.86;99115.34;5052244;28;20248;-66
2022/04/18 03:04:39;;;;;;;1.80;1.80;;;;;;;6.68;100.00;99112.03;5051840;28;20266;-66
2022/04/18 03:07:06;;;;;;;1.63;1.63;;;;;;;6.63;100.00;99109.13;5052755;28;20589;-67
2022/04/18 03:09:33;;;;;;;2.13;2.03;;;;;;;6.61;99.98;99111.94;5052011;28;20192;-68
2022/04/18 03:12:02;;;;;;;2.10;2.00;;;;;;;6.59;99.97;99115.75;5051797;28;20666;-68
2022/04/18 03:14:28;;;;;;;2.10;2.00;;;;;;;6.60;100.00;99112.13;5051586;28;20679;-67
2022/04/18 03:16:57;;;;;;;2.23;2.13;;;;;;;6.56;100.00;99119.59;5052109;28;20253;-66
2022/04/18 03:19:24;;;;;;;2.57;2.47;;;;;;;6.44;100.00;99122.81;5052578;28;20261;-67
2022/04/18 03:21:50;;;;;;;2.40;2.30;;;;;;;6.35;100.00;99121.25;5052043;28;20192;-67
2022/04/18 03:24:17;;;;;;;2.73;2.63;;;;;;;6.34;100.00;99120.47;5052116;28;20258;-68
2022/04/18 03:26:45;;;;;;;2.53;2.43;;;;;;;6.38;100.00;99115.63;5051929;28;20242;-67
2022/04/18 03:29:12;;;;;;;2.50;2.40;;;;;;;6.36;100.00;99112.38;5051630;28;20196;-67
2022/04/18 03:31:38;;;;;;;4.20;3.90;;;;;;;6.35;100.00;99115.97;5052675;28;20200;-66
2022/04/18 03:34:06;;;;;;;3.53;3.33;;;;;;;6.31;100.00;99109.44;5051357;28;20665;-67
2022/04/18 03:42:02;;;;;;;2.70;2.60;;;;;;;6.17;100.00;99108.41;5051682;28;20181;-67
2022/04/18 03:44:28;;;;;;;3.27;3.17;;;;;;;6.07;100.00;99107.81;5051422;28;20286;-68
2022/04/18 03:46:55;;;;;;;2.50;2.40;;;;;;;6.03;100.00;99108.34;5051793;28;20190;-67
2022/04/18 03:49:23;;;;;;;2.00;1.90;;;;;;;6.06;100.00;99102.72;5052084;28;20189;-66
2022/04/18 03:51:50;;;;;;;2.30;2.20;;;;;;;6.25;100.00;99102.25;5051387;28;20662;-68
2022/04/18 03:54:16;;;;;;;2.63;2.43;;;;;;;6.42;100.00;99101.09;5051336;28;20196;-68
2022/04/18 03:56:43;;;;;;;2.40;2.30;;;;;;;6.51;100.00;99100.00;5051397;28;20666;-68
2022/04/18 03:59:10;;;;;;;2.63;2.53;;;;;;;6.62;100.00;99107.50;5051736;28;20188;-68
2022/04/18 04:01:37;;;;;;;2.00;1.90;;;;;;;6.40;100.00;99105.75;5051557;28;20631;-68
2022/04/18 04:04:03;;;;;;;3.00;2.90;;;;;;;6.40;100.00;99098.63;5051821;28;20216;-67
2022/04/18 04:06:32;;;;;;;2.80;2.70;;;;;;;6.40;100.00;99103.91;5051401;28;20247;-67
2022/04/18 04:08:59;;;;;;;4.63;4.23;;;;;;;6.41;100.00;99110.81;5052293;28;20199;-67
2022/04/18 04:11:25;;;;;;;17.57;12.43;;;;;;;6.46;100.00;99118.19;5054596;28;20196;-68
2022/04/18 04:13:52;;;;;;;4.70;4.40;;;;;;;6.41;100.00;99116.09;5055824;28;20228;-67
2022/04/18 04:16:19;;;;;;;4.03;3.83;;;;;;;6.48;100.00;99113.56;5055761;28;20224;-67
2022/04/18 04:18:47;;;;;;;3.27;3.10;;;;;;;6.62;100.00;99123.31;5056044;28;20190;-66
2022/04/18 04:21:14;;;;;;;3.00;2.90;;;;;;;6.76;100.00;99111.94;5055202;28;20193;-68
2022/04/18 04:23:42;;;;;;;3.00;2.90;;;;;;;6.78;100.00;99121.31;5054895;28;20275;-67
2022/04/18 04:26:08;;;;;;;3.67;3.43;;;;;;;6.73;100.00;99118.41;5054783;28;20743;-68
2022/04/18 04:28:35;;;;;;;3.83;3.63;;;;;;;6.82;100.00;99105.97;5055042;28;20192;-69
2022/04/18 04:31:03;;;;;;;4.83;4.43;;;;;;;7.28;100.00;99105.59;5055504;28;20685;-66
2022/04/18 04:33:31;;;;;;;5.53;5.23;;;;;;;7.50;100.00;99101.16;5054931;28;20633;-68
2022/04/18 04:35:58;;;;;;;4.60;4.30;;;;;;;7.40;100.00;99108.56;5055103;28;20202;-68
2022/04/18 04:38:25;;;;;;;4.30;4.00;;;;;;;7.39;100.00;99107.72;5054441;28;20195;-68
2022/04/18 04:40:54;;;;;;;3.40;3.20;;;;;;;7.46;99.63;99110.44;5054559;28;20198;-67
2022/04/18 04:43:21;;;;;;;3.83;3.63;;;;;;;7.50;98.81;99114.34;5054963;28;20226;-67
2022/04/18 04:45:48;;;;;;;3.47;3.37;;;;;;;7.63;100.00;99110.03;5054273;28;20627;-68
2022/04/18 04:48:15;;;;;;;3.93;3.63;;;;;;;7.65;98.67;99112.50;5054152;28;20196;-68
2022/04/18 04:50:41;;;;;;;2.80;2.70;;;;;;;7.59;97.58;99107.97;5054792;28;20196;-68
2022/04/18 04:53:08;;;;;;;4.23;3.93;;;;;;;7.52;97.24;99115.81;5054524;28;20200;-66
2022/04/18 04:55:37;;;;;;;7.97;7.47;;;;;;;7.31;97.56;99107.84;5054580;28;20196;-68
2022/04/18 04:58:05;;;;;;;4.97;4.67;;;;;;;7.22;97.84;99126.63;5052256;28;20275;-68
2022/04/18 05:00:32;;;;;;;3.63;3.33;;;;;;;7.07;98.67;99121.34;5054100;28;20196;-68
2022/04/18 05:02:59;;;;;;;3.30;3.10;;;;;;;6.97;98.52;99130.53;5054370;28;20714;-67
2022/04/18 05:05:26;;;;;;;4.40;4.10;;;;;;;6.97;98.60;99127.88;5053512;28;20203;-68
2022/04/18 05:07:53;;;;;;;4.43;4.23;;;;;;;7.00;99.88;99132.81;5048606;28;20204;-68
2022/04/18 05:10:19;;;;;;;4.10;3.90;;;;;;;7.04;100.00;99134.09;5053472;28;20562;-64
2022/04/18 05:12:46;;;;;;;3.70;3.60;;;;;;;6.99;100.00;99115.34;5049858;28;20208;-64
2022/04/18 05:15:14;;;;;;;3.73;3.53;;;;;;;7.17;100.00;99134.25;5053312;28;20236;-63
2022/04/18 05:17:41;;;;;;;3.83;3.63;;;;;;;7.27;100.00;99135.63;5053040;28;20561;-64
2022/04/18 05:20:09;;;;;;;3.43;3.23;;;;;;;7.28;99.34;99132.00;5052062;28;20261;-64
2022/04/18 05:22:36;;;;;;;3.73;3.53;;;;;;;7.31;99.68;99125.53;5053048;28;20244;-64
2022/04/18 05:25:03;;;;;;;3.60;3.40;;;;;;;7.28;99.02;99133.81;5048450;28;20212;-64
2022/04/18 05:27:30;;;;;;;2.77;2.67;;;;;;;7.19;99.15;99141.00;5044434;28;20215;-65
2022/04/18 05:29:57;;;;;;;3.10;2.90;;;;;;;7.17;99.06;99137.72;5051919;28;20744;-65
2022/04/18 05:32:26;;;;;;;3.10;2.90;;;;;;;7.23;98.92;99133.53;5049188;28;21936;-65
2022/04/18 05:34:52;;;;;;;2.87;2.77;;;;;;;7.27;98.71;99129.53;5037744;28;20731;-65
2022/04/18 05:37:19;;;;;;;2.80;2.70;;;;;;;7.23;99.44;99128.25;5052730;28;20203;-66
2022/04/18 05:39:46;;;;;;;4.57;4.37;;;;;;;7.19;98.44;99134.91;5051403;28;20199;-65
2022/04/18 05:42:12;;;;;;;8.73;7.93;;;;;;;7.21;98.16;99140.81;5048086;28;20258;-63
2022/04/18 05:44:39;;;;;;;13.23;11.87;;;;;;;7.23;98.75;99144.13;5053076;28;20280;-64
2022/04/18 05:47:06;;;;;;;11.43;10.60;;;;;;;7.24;99.56;99148.38;5052856;28;20189;-64
2022/04/18 05:49:34;;;;;;;4.90;4.63;;;;;;;7.18;98.95;99146.50;5048193;28;20189;-64
2022/04/18 05:52:01;;;;;;;5.83;5.47;;;;;;;7.06;98.69;99147.94;5054454;28;20536;-62
2022/04/18 05:54:27;;;;;;;3.83;3.63;;;;;;;7.13;99.59;99148.84;5050458;28;20211;-63
2022/04/18 05:56:55;;;;;;;2.93;2.73;;;;;;;7.08;100.00;99145.94;5052666;28;20696;-62
2022/04/18 05:59:21;;;;;;;3.33;3.13;;;;;;;7.05;99.43;99146.28;5051344;28;20210;-64
2022/04/18 06:01:48;;;;;;;3.97;3.77;;;;;;;6.97;99.06;99149.00;5053110;28;20192;-64
2022/04/18 06:04:14;;;;;;;11.67;10.47;;;;;;;7.02;99.69;99149.31;5072620;28;20213;-63
2022/04/18 06:06:43;;;;;;;7.00;6.40;;;;;;;7.05;99.82;99152.41;5062820;28;20199;-63
2022/04/18 06:09:09;;;;;;;2.80;2.70;;;;;;;6.99;99.42;99149.66;5059856;28;20195;-64
2022/04/18 06:11:36;;;;;;;3.37;3.17;;;;;;;6.81;99.09;99154.50;5060305;28;20253;-65
2022/04/18 06:14:03;;;;;;;6.73;6.13;;;;;;;6.87;99.32;99161.66;5052992;28;20200;-63
2022/04/18 06:16:29;;;;;;;13.20;12.00;;;;;;;6.93;99.34;99158.28;5052093;28;20287;-62
2022/04/18 06:18:56;;;;;;;6.63;6.23;;;;;;;7.01;99.24;99160.84;5051607;28;20739;-62
2022/04/18 06:21:23;;;;;;;4.70;4.50;;;;;;;7.14;99.13;99158.41;5034849;28;20195;-63
2022/04/18 06:23:51;;;;;;;5.10;4.80;;;;;;;7.18;99.63;99157.84;5046827;28;20275;-62
2022/04/18 06:26:18;;;;;;;3.10;3.00;;;;;;;7.08;99.24;99167.88;5030970;28;20196;-62
2022/04/18 06:28:44;;;;;;;3.07;2.97;;;;;;;7.14;100.00;99161.06;5053133;28;20620;-63
2022/04/18 06:31:11;;;;;;;5.47;5.17;;;;;;;7.18;100.00;99167.63;5064096;28;20188;-63
2022/04/18 06:33:38;;;;;;;5.50;5.17;;;;;;;7.22;100.00;99160.97;5047614;28;20270;-63
2022/04/18 06:36:05;;;;;;;3.83;3.73;;;;;;;7.08;100.00;99167.06;5045368;28;20205;-62
2022/04/18 06:38:32;;;;;;;4.10;3.90;;;;;;;7.11;100.00;99169.34;5031743;28;20249;-63
2022/04/18 06:41:01;;;;;;;4.50;4.30;;;;;;;7.12;100.00;99173.63;5045655;28;20189;-62
2022/04/18 06:43:28;;;;;;;3.40;3.20;;;;;;;7.12;100.00;99176.25;5051085;28;20200;-63
2022/04/18 06:45:55;;;;;;;3.93;3.73;;;;;;;7.00;100.00;99167.13;5051985;28;20254;-62
2022/04/18 06:48:22;;;;;;;3.40;3.20;;;;;;;7.11;99.19;99171.97;5051321;28;20192;-63
2022/04/18 06:50:49;;;;;;;3.17;2.97;;;;;;;7.34;98.64;99170.03;5052302;28;20275;-62
2022/04/18 06:53:16;;;;;;;3.50;3.33;;;;;;;7.53;97.06;99177.41;5052103;28;20250;-62
2022/04/18 06:58:29;;;;;;;3.13;2.93;;;;;;;7.89;96.05;99180.91;5051905;28;20190;-63
2022/04/18 07:00:55;;;;;;;3.23;3.03;;;;;;;7.95;92.69;99188.09;5051064;28;20194;-64
2022/04/18 07:03:22;;;;;;;2.50;2.40;;;;;;;7.84;89.51;99191.22;5051033;28;20203;-64
2022/04/18 07:05:49;;;;;;;1.70;1.70;;;;;;;7.73;89.86;99189.88;5051084;28;20702;-63
2022/04/18 07:08:16;;;;;;;2.27;2.17;;;;;;;7.69;91.54;99185.97;5051118;28;20200;-64
2022/04/18 07:10:43;;;;;;;1.67;1.57;;;;;;;7.71;90.64;99191.88;5050593;28;20675;-65
2022/04/18 07:13:10;;;;;;;1.53;1.53;;;;;;;7.80;90.70;99195.25;5050427;28;20191;-63
2022/04/18 07:15:38;;;;;;;1.80;1.80;;;;;;;7.84;90.49;99199.16;5051182;28;20232;-63
2022/04/18 07:18:05;;;;;;;1.67;1.57;;;;;;;7.91;90.16;99194.75;5050892;28;20632;-63
2022/04/18 07:20:31;;;;;;;1.80;1.80;;;;;;;7.91;88.35;99197.38;5050968;28;20674;-64
2022/04/18 07:22:58;;;;;;;3.83;2.10;;;;;;;7.91;89.44;99197.38;5051191;28;20261;-63
2022/04/18 07:25:25;;;;;;;1.60;1.60;;;;;;;8.05;88.72;99209.78;5050323;28;20278;-64
2022/04/18 07:27:52;;;;;;;2.20;2.10;;;;;;;8.16;87.70;99210.09;5051707;28;20200;-63
2022/04/18 07:30:18;;;;;;;2.20;2.10;;;;;;;8.32;88.93;99209.06;5051408;28;20215;-63
2022/04/18 07:32:47;;;;;;;1.60;1.60;;;;;;;8.46;85.78;99203.69;5051504;28;20584;-64
2022/04/18 07:35:13;;;;;;;1.67;1.60;;;;;;;8.53;86.19;99214.38;5051097;28;20197;-63
2022/04/18 07:38:48;;;;;;;2.00;1.90;;;;;;;8.54;86.04;99210.72;5044098;28;20258;-62
2022/04/18 07:40:29;;;;;;;1.73;1.73;;;;;;;8.49;85.78;99218.41;5054511;28;20192;-64
2022/04/18 07:42:55;;;;;;;1.97;1.87;;;;;;;8.42;86.87;99217.53;5051441;28;20188;-64
2022/04/18 07:45:22;;;;;;;2.17;2.07;;;;;;;8.44;87.60;99223.44;5053649;28;20703;-63
2022/04/18 07:47:51;;;;;;;2.50;2.40;;;;;;;8.32;85.59;99217.00;5055014;28;20218;-64
2022/04/18 07:50:18;;;;;;;2.00;1.90;;;;;;;8.18;87.41;99217.84;5055151;28;20631;-64
2022/04/18 07:52:45;;;;;;;2.60;2.50;;;;;;;8.13;86.51;99218.41;5055251;28;20673;-65
2022/04/18 07:55:12;;;;;;;2.53;2.40;;;;;;;8.09;88.08;99221.63;5054705;28;20213;-63
2022/04/18 07:57:38;;;;;;;1.90;1.80;;;;;;;8.03;87.93;99222.34;5055347;28;20254;-63
2022/04/18 08:00:07;;;;;;;2.60;2.50;;;;;;;8.16;88.79;99220.69;5054591;28;20254;-65
2022/04/18 08:02:34;;;;;;;1.90;1.70;;;;;;;8.32;86.90;99223.13;5047599;28;20193;-63
2022/04/18 08:05:02;;;;;;;2.37;2.23;;;;;;;8.44;88.35;99226.06;5041325;28;20219;-64
2022/04/18 08:07:30;;;;;;;2.07;1.97;;;;;;;8.53;86.64;99235.56;5055415;28;20283;-63
2022/04/18 08:09:56;;;;;;;1.90;1.80;;;;;;;8.61;87.54;99230.09;5054730;28;20197;-63
2022/04/18 08:12:23;;;;;;;2.07;2.00;;;;;;;8.64;87.15;99229.72;5052176;28;20229;-61
2022/04/18 08:14:50;;;;;;;2.90;2.80;;;;;;;8.77;89.96;99232.50;5040180;28;20662;-65
2022/04/18 08:17:16;;;;;;;2.10;2.00;;;;;;;8.75;86.49;99230.06;5044665;28;20882;-64
2022/04/18 08:19:43;;;;;;;2.17;2.07;;;;;;;8.76;84.19;99236.97;5045750;28;20267;-63
2022/04/18 08:22:11;;;;;;;1.90;1.80;;;;;;;8.75;84.19;99242.47;5039486;28;20255;-62
2022/04/18 08:24:38;;;;;;;1.80;1.70;;;;;;;8.68;84.38;99229.16;5053685;28;20278;-64
2022/04/18 08:27:05;;;;;;;3.20;2.90;;;;;;;8.77;85.06;99243.09;5046948;28;20201;-61
2022/04/18 08:29:32;;;;;;;3.07;2.87;;;;;;;8.86;85.67;99236.66;5055485;28;20200;-62
2022/04/18 08:31:58;;;;;;;3.13;2.93;;;;;;;9.00;85.55;99243.69;5052868;28;20192;-61
2022/04/18 08:34:25;;;;;;;1.60;1.60;;;;;;;8.82;83.97;99244.16;5053207;28;20675;-64
2022/04/18 08:36:52;;;;;;;2.43;2.33;;;;;;;8.85;83.77;99248.25;5053001;28;20196;-63
2022/04/18 08:39:20;;;;;;;6.47;5.00;;;;;;;8.97;85.31;99249.38;5053842;28;20254;-66
2022/04/18 08:41:50;;;;;;;25.90;12.47;;;;;;;9.06;84.29;99249.03;5053097;28;20262;-64
2022/04/18 08:44:19;;;;;;;2.40;2.30;;;;;;;9.06;81.74;99253.50;5053843;28;20185;-63
2022/04/18 08:46:47;;;;;;;3.47;3.17;;;;;;;9.10;83.26;99250.28;5054354;28;20222;-62
2022/04/18 08:54:53;;;;;;;1.70;1.60;;;;;;;8.91;81.65;99231.59;5052652;28;20200;-63
2022/04/18 08:57:19;;;;;;;2.27;2.17;;;;;;;9.05;81.57;99259.81;5053180;28;20204;-63
2022/04/18 08:59:46;;;;;;;2.10;2.00;;;;;;;9.04;81.44;99255.53;5054141;28;20200;-62
2022/04/18 09:02:13;;;;;;;1.53;1.53;;;;;;;9.13;82.27;99259.69;5054155;28;20184;-63
2022/04/18 09:04:40;;;;;;;1.73;1.73;;;;;;;9.11;81.98;99251.13;5053942;28;20216;-62
2022/04/18 09:07:10;;;;;;;1.90;1.80;;;;;;;8.98;81.34;99256.28;5053574;28;20197;-63
2022/04/18 09:09:37;;;;;;;1.63;1.50;;;;;;;8.97;81.18;99257.31;5052726;28;20192;-65
2022/04/18 09:12:17;;;;;;;1.40;1.40;;;;;;;8.92;81.33;99257.06;5053911;28;20253;-65
2022/04/18 09:14:45;;;;;;;1.20;1.20;;;;;;;8.89;79.76;99258.28;5054654;28;20283;-63
2022/04/18 09:17:12;;;;;;;1.30;1.30;;;;;;;9.03;78.94;99264.50;5055050;28;20189;-64
2022/04/18 09:19:39;;;;;;;1.30;1.30;;;;;;;9.15;77.54;99262.97;5052716;28;20246;-63
2022/04/18 09:22:07;;;;;;;1.60;1.50;;;;;;;9.30;77.90;99272.47;5052776;28;20752;-64
2022/04/18 09:24:36;;;;;;;1.50;1.40;;;;;;;9.43;76.77;99271.72;5053664;28;20232;-65
2022/04/18 09:27:07;;;;;;;1.80;1.70;;;;;;;9.46;77.00;99272.16;5053200;28;20212;-65
2022/04/18 09:29:38;;;;;;;1.57;1.57;;;;;;;9.54;77.44;99272.00;5053483;28;20697;-65
2022/04/18 09:32:08;;;;;;;1.60;1.60;;;;;;;9.61;77.74;99269.41;5053384;28;20185;-65
2022/04/18 09:34:35;;;;;;;1.87;1.87;;;;;;;9.72;76.73;99277.63;5052710;28;20223;-64
2022/04/18 09:37:17;;;;;;;1.90;1.80;;;;;;;9.63;77.14;99273.50;5053251;28;20197;-63
2022/04/18 09:39:45;;;;;;;1.73;1.63;;;;;;;9.46;78.96;99266.88;5056427;28;20180;-63
2022/04/18 09:42:14;;;;;;;2.10;2.00;;;;;;;9.48;79.30;99269.31;5063924;28;20188;-64
2022/04/18 09:44:42;;;;;;;1.90;1.90;;;;;;;9.46;78.89;99271.34;5061520;28;20188;-63
2022/04/18 09:47:15;;;;;;;2.53;2.30;;;;;;;9.46;77.94;99276.63;5072375;28;20192;-63
2022/04/18 09:49:42;;;;;;;2.40;2.30;;;;;;;9.42;79.39;99278.03;5063667;28;20184;-63
2022/04/18 09:52:11;;;;;;;2.30;2.20;;;;;;;9.37;79.47;99268.03;5056645;28;20234;-62
2022/04/18 09:54:44;;;;;;;2.03;1.90;;;;;;;9.37;78.17;99277.81;5053173;28;20250;-63
2022/04/18 09:57:11;;;;;;;3.00;2.10;;;;;;;9.36;78.41;99281.47;5052763;28;20655;-64
2022/04/18 09:59:40;;;;;;;1.60;1.50;;;;;;;9.35;76.57;99285.94;5053103;28;20189;-63
2022/04/18 10:02:13;;;;;;;1.57;1.57;;;;;;;9.33;79.03;99276.56;5057584;28;20665;-64
2022/04/18 10:04:40;;;;;;;1.20;1.20;;;;;;;9.40;79.37;99280.06;5072795;28;20204;-63
2022/04/18 10:07:08;;;;;;;2.17;2.03;;;;;;;9.40;78.18;99282.72;5072670;28;20195;-63
2022/04/18 10:09:35;;;;;;;2.57;2.40;;;;;;;9.46;78.22;99281.94;5071910;28;20237;-63
2022/04/18 10:12:03;;;;;;;2.00;1.90;;;;;;;9.38;77.79;99290.03;5073183;28;20195;-63
2022/04/18 10:14:30;;;;;;;1.87;1.80;;;;;;;9.33;78.11;99287.16;5070657;28;20768;-63
2022/04/18 10:16:59;;;;;;;1.87;1.77;;;;;;;9.36;79.12;99276.19;5053078;28;20193;-63
2022/04/18 10:20:07;;;;;;;1.57;1.57;;;;;;;9.33;78.66;99282.69;5052399;28;20192;-63
2022/04/18 10:22:54;;;;;;;2.27;1.83;;;;;;;9.37;77.33;99289.25;5052419;28;20230;-62
2022/04/18 10:25:36;;;;;;;2.37;2.27;;;;;;;9.32;78.16;99277.56;5048847;28;20224;-63
2022/04/18 10:28:09;;;;;;;3.37;3.07;;;;;;;9.34;79.40;99279.00;5048844;28;20275;-64
2022/04/18 10:30:41;;;;;;;3.07;2.87;;;;;;;9.39;80.13;99266.00;5052441;28;20181;-62
2022/04/18 10:33:12;;;;;;;2.83;2.73;;;;;;;9.53;81.00;99266.91;5052633;28;20242;-63
2022/04/18 10:35:47;;;;;;;2.43;2.33;;;;;;;9.52;77.27;99270.56;5052389;28;20275;-63
2022/04/18 10:38:14;;;;;;;3.23;2.50;;;;;;;9.41;76.63;99263.97;5052757;28;20184;-62
2022/04/18 10:40:41;;;;;;;2.20;2.10;;;;;;;9.57;78.60;99276.09;5052674;28;20334;-63
2022/04/18 10:43:09;;;;;;;2.50;2.40;;;;;;;9.58;78.69;99269.78;5052604;28;20267;-62
2022/04/18 10:45:36;;;;;;;4.20;3.90;;;;;;;9.41;79.45;99265.81;5045923;28;20220;-63
2022/04/18 10:48:09;;;;;;;3.40;3.10;;;;;;;9.47;80.81;99262.38;5052435;28;20637;-62
2022/04/18 10:50:42;;;;;;;5.07;4.77;;;;;;;9.53;79.01;99261.59;5066768;28;20184;-62
2022/04/18 10:53:35;;;;;;;3.47;2.23;;;;;;;9.68;77.10;99273.72;5070553;28;20266;-63
2022/04/18 10:56:13;;;;;;;2.00;1.90;;;;;;;9.83;76.27;99270.94;5031926;28;20421;-62
2022/04/18 10:58:44;;;;;;;2.20;2.10;;;;;;;10.03;76.56;99274.50;5032095;28;20216;-63
2022/04/18 11:01:11;;;;;;;2.23;2.13;;;;;;;10.20;75.55;99275.81;5031563;28;20192;-63
2022/04/18 11:03:46;;;;;;;3.03;2.93;;;;;;;10.40;76.22;99271.41;5066539;28;20735;-62
2022/04/18 11:07:00;;;;;;;2.77;2.67;;;;;;;10.43;75.46;99263.88;5071502;28;20268;-62
2022/04/18 11:09:29;;;;;;;2.80;2.60;;;;;;;10.53;74.66;99274.09;5071789;28;20195;-61
2022/04/18 11:12:01;;;;;;;3.30;3.07;;;;;;;10.52;74.95;99265.31;5071583;28;20192;-61
2022/04/18 11:14:31;;;;;;;2.57;2.47;;;;;;;10.50;75.59;99267.34;5069756;28;20211;-61
2022/04/18 11:17:00;;;;;;;3.47;3.17;;;;;;;10.50;75.67;99266.53;5052187;28;20200;-61
2022/04/18 11:19:30;;;;;;;2.00;1.90;;;;;;;10.54;75.57;99270.44;5050839;28;20678;-62
2022/04/18 11:22:21;;;;;;;2.83;2.73;;;;;;;10.58;75.65;99269.00;5051975;28;20193;-60
2022/04/18 11:24:59;;;;;;;1.90;1.90;;;;;;;10.55;75.82;99277.38;5046849;28;20570;-61
2022/04/18 11:27:33;;;;;;;2.47;2.37;;;;;;;10.54;76.52;99268.56;5051848;28;20196;-61
2022/04/18 11:30:01;;;;;;;2.80;2.70;;;;;;;10.46;77.27;99260.00;5051191;28;20258;-62
2022/04/18 11:32:29;;;;;;;1.90;1.80;;;;;;;10.47;76.84;99256.31;5051504;28;20219;-62
2022/04/18 11:35:00;;;;;;;1.60;1.60;;;;;;;10.34;75.20;99266.91;5051261;28;20196;-62
2022/04/18 11:37:28;;;;;;;1.80;1.80;;;;;;;10.40;74.21;99266.09;5052319;28;20193;-62
2022/04/18 11:39:56;;;;;;;2.50;2.30;;;;;;;10.32;74.66;99251.16;5052198;28;20246;-63
2022/04/18 11:42:25;;;;;;;2.30;2.20;;;;;;;10.39;76.13;99256.50;5051491;28;20561;-62
2022/04/18 11:44:55;;;;;;;2.53;2.43;;;;;;;10.38;75.19;99260.97;5052118;28;20257;-63
2022/04/18 11:47:23;;;;;;;2.80;2.70;;;;;;;10.06;76.60;99252.91;5051263;28;20213;-65
2022/04/18 11:49:55;;;;;;;1.87;1.77;;;;;;;9.55;78.76;99254.25;5059677;28;20219;-60
2022/04/18 11:52:25;;;;;;;1.30;1.30;;;;;;;9.64;77.62;99248.59;5070110;28;20185;-61
2022/04/18 11:54:57;;;;;;;1.67;1.30;;;;;;;9.21;79.24;99252.44;5058450;28;20192;-61
2022/04/18 11:57:24;;;;;;;1.53;1.53;;;;;;;9.45;79.87;99244.03;5050934;28;20197;-61
2022/04/18 11:59:51;;;;;;;1.60;1.60;;;;;;;9.51;78.08;99247.72;5051116;28;20196;-64
2022/04/18 12:07:52;;;;;;;2.20;2.10;;;;;;;10.14;77.32;99242.94;5070552;28;20277;-65
2022/04/18 12:10:21;;;;;;;1.90;1.83;;;;;;;10.23;77.06;99232.97;5071418;28;20257;-63
2022/04/18 12:12:49;;;;;;;1.83;1.80;;;;;;;9.95;77.24;99237.53;5070510;28;20569;-64